LEVD/VLL METAR and TAF weather

Enter ICAO airport designator
Station Type Date Time Source
LEVD METAR 2020/12/06 00:30 UTC NOAA

LEVD 060030Z AUTO 25010KT CAVOK M00/M01 Q1007


Station Type Date Time Source
LEVD Decoded METAR 2020/12/06 00:30 UTC NOAA

Valladolid / Villanubla, Spain (LEVD) 41-43N 004-51W 846M
Dec 05, 2020 - 07:30 PM EST / 2020.12.06 0030 UTC
Wind: from the WSW (250 degrees) at 12 MPH (10 KT):0
Visibility: greater than 7 mile(s):0
Temperature: 32 F (0 C)
Windchill: 23 F (-5 C):1
Dew Point: 30 F (-1 C)
Relative Humidity: 92%
Pressure (altimeter): 29.74 in. Hg (1007 hPa)
ob: LEVD 060030Z AUTO 25010KT CAVOK M00/M01 Q1007
cycle: 0

Station Type Date Time Source
LEVD TAF 2020/12/05 21:27 UTC NOAA

TAF LEVD 052000Z 0521/0621 27014KT 9999 FEW030 TX05/0614Z TNM02/0606Z
TEMPO 0617/0621 BKN012

Example: see airport list